首页
METAR-TAF:

METAR-TAF

机场 :

巴拉德罗, 古巴

纬度: 23-08N, 经度: 081-17W, 海拔: 3米

当前天气观测

该预报发布于1小时和14分钟前的20:50 UTC
风速16节,风向东转东北
温度 28°C
湿度 62%
气压 1016 hPa
能見度: 9000
少量云层高于3000英尺

METAR: MUVR 172050Z 06016KT 9000 FEW030 28/20 Q1016

时间: 18:04 (22:04 UTC)

预报

该预报发布于5小时和4分钟前的17:00 UTC
预报有效从17日的 18点(UTC)到 18日的 18点(UTC)
风速14节,风向东转东北
能見度: 9000
散云层高于2000英尺
成为
从 18日的 02点(UTC)到 18日的 03点(UTC)
风速6节,风向
少量云层高于2000英尺
成为
从 18日的 17点(UTC)到 18日的 18点(UTC)
风速12节,风向东北

TAF: MUVR 171700Z 1718/1818 07014KT 9000 SCT020 BECMG 1802/1803 10006KT FEW020 BECMG 1817/1818 04012KT

超过4000个机场的气象观测和天气预报(METAR&TAF报告)。

可查询的气象台以黄色和红色小点在地图上表示。

将鼠标移到小点上方,可查看气象台名称。

然后点击查看天气观测和预报。

如需切换地图:点击带黑十字的绿色按钮放大地图;点击带横线的绿色按钮缩小地图;或者点击绿色箭头查看邻近地区的地图。


METAR-TAF: